createdAt,value
2023-07-30T00:00:50.509Z,6.97
2023-07-30T00:03:17.506Z,5.95
2023-07-30T00:05:44.087Z,8.25
2023-07-30T00:08:10.657Z,11.15
2023-07-30T00:10:37.611Z,5.70
2023-07-30T00:13:04.137Z,5.93
2023-07-30T00:15:30.709Z,9.60
2023-07-30T00:17:57.430Z,5.85
2023-07-30T00:20:24.064Z,6.93
2023-07-30T00:22:50.608Z,5.55
2023-07-30T00:25:17.179Z,5.38
2023-07-30T00:27:43.713Z,6.70
2023-07-30T00:30:10.896Z,4.63
2023-07-30T00:32:43.197Z,6.32
2023-07-30T00:35:11.973Z,5.05
2023-07-30T00:37:38.500Z,5.05
2023-07-30T00:40:05.645Z,8.73
2023-07-30T00:42:32.347Z,4.22
2023-07-30T00:44:58.994Z,9.00
2023-07-30T00:47:26.963Z,8.00
2023-07-30T00:49:54.190Z,2.97
2023-07-30T00:52:22.485Z,4.70
2023-07-30T00:54:50.206Z,4.43
2023-07-30T00:57:19.868Z,5.38
2023-07-30T00:59:48.776Z,7.90
2023-07-30T01:02:15.774Z,4.18
2023-07-30T01:04:43.254Z,7.00
2023-07-30T01:07:10.486Z,3.15
2023-07-30T01:09:37.351Z,6.88
2023-07-30T01:12:05.962Z,5.70
2023-07-30T01:14:34.005Z,11.02
2023-07-30T01:17:00.706Z,10.38
2023-07-30T01:19:27.295Z,5.07
2023-07-30T01:21:53.806Z,6.18
2023-07-30T01:24:20.372Z,7.53
2023-07-30T01:27:02.059Z,3.72
2023-07-30T01:29:46.448Z,11.77
2023-07-30T01:32:14.833Z,6.10
2023-07-30T01:34:44.836Z,4.45
2023-07-30T01:37:13.747Z,7.88
2023-07-30T01:39:42.441Z,6.38
2023-07-30T01:42:09.052Z,6.60
2023-07-30T01:44:35.799Z,4.85
2023-07-30T01:47:02.355Z,6.40
2023-07-30T01:49:28.957Z,8.88
2023-07-30T01:51:55.463Z,13.13
2023-07-30T01:54:22.106Z,6.13
2023-07-30T01:56:48.954Z,8.25
2023-07-30T01:59:15.556Z,8.02
2023-07-30T02:01:43.238Z,7.47
2023-07-30T02:04:10.034Z,7.68
2023-07-30T02:06:36.556Z,13.65
2023-07-30T02:09:03.458Z,12.55
2023-07-30T02:11:30.091Z,7.07
2023-07-30T02:13:56.755Z,10.20
2023-07-30T02:16:23.555Z,9.18
2023-07-30T02:18:50.095Z,8.02
2023-07-30T02:21:16.823Z,9.50
2023-07-30T02:23:43.313Z,10.27
2023-07-30T02:26:09.865Z,8.45
2023-07-30T02:28:36.461Z,8.80
2023-07-30T02:31:03.052Z,6.57
2023-07-30T02:33:29.841Z,9.18
2023-07-30T02:35:57.121Z,13.05
2023-07-30T02:38:23.686Z,14.85
2023-07-30T02:40:50.248Z,9.05
2023-07-30T02:43:16.799Z,9.45
2023-07-30T02:45:43.472Z,8.15
2023-07-30T02:48:10.100Z,13.35
2023-07-30T02:50:36.664Z,17.45
2023-07-30T02:53:03.179Z,9.23
2023-07-30T02:55:29.751Z,17.50
2023-07-30T02:57:56.364Z,13.85
2023-07-30T03:00:22.858Z,14.95
2023-07-30T03:02:49.612Z,13.70
2023-07-30T03:05:16.334Z,17.30
2023-07-30T03:07:44.427Z,14.32
2023-07-30T03:10:11.216Z,13.40
2023-07-30T03:12:38.115Z,11.27
2023-07-30T03:15:05.150Z,14.77
2023-07-30T03:17:31.746Z,13.40
2023-07-30T03:19:58.409Z,14.25
2023-07-30T03:22:25.024Z,16.50
2023-07-30T03:24:51.652Z,11.90
2023-07-30T03:27:18.540Z,16.73
2023-07-30T03:29:45.161Z,18.52
2023-07-30T03:32:11.760Z,11.52
2023-07-30T03:34:38.224Z,13.50
2023-07-30T03:37:06.574Z,14.38
2023-07-30T03:39:33.190Z,20.55
2023-07-30T03:41:59.756Z,19.40
2023-07-30T03:44:26.375Z,12.40
2023-07-30T03:46:53.040Z,17.52
2023-07-30T03:49:19.678Z,14.80
2023-07-30T03:51:46.272Z,19.15
2023-07-30T03:54:12.789Z,16.05
2023-07-30T03:56:39.286Z,12.27
2023-07-30T03:59:05.817Z,18.77
2023-07-30T04:01:32.408Z,13.52
2023-07-30T04:03:59.154Z,22.98
2023-07-30T04:06:25.780Z,14.90
2023-07-30T04:08:52.398Z,18.70
2023-07-30T04:11:18.878Z,19.83
2023-07-30T04:13:45.475Z,20.48
2023-07-30T04:16:12.134Z,14.98
2023-07-30T04:18:38.751Z,20.17
2023-07-30T04:21:05.321Z,25.25
2023-07-30T04:23:31.894Z,18.70
2023-07-30T04:25:58.485Z,18.52
2023-07-30T04:28:25.102Z,22.83
2023-07-30T04:30:52.138Z,19.58
2023-07-30T04:33:18.799Z,11.48
2023-07-30T04:35:45.476Z,18.35
2023-07-30T04:38:12.175Z,24.27
2023-07-30T04:40:40.542Z,15.18
2023-07-30T04:43:07.314Z,19.02
2023-07-30T04:45:33.868Z,29.55
2023-07-30T04:48:00.707Z,24.38
2023-07-30T04:50:27.324Z,18.15
2023-07-30T04:52:53.830Z,33.25
2023-07-30T04:55:20.375Z,17.40
2023-07-30T04:57:47.089Z,26.75
2023-07-30T05:00:13.847Z,21.70
2023-07-30T05:02:40.866Z,25.45
2023-07-30T05:05:07.668Z,21.50
2023-07-30T05:07:34.271Z,23.65
2023-07-30T05:10:00.955Z,24.20
2023-07-30T05:12:27.611Z,23.55
2023-07-30T05:14:54.109Z,18.42
2023-07-30T05:17:20.718Z,15.82
2023-07-30T05:19:47.795Z,23.40
2023-07-30T05:22:14.352Z,18.58
2023-07-30T05:24:40.949Z,29.48
2023-07-30T05:27:07.532Z,18.65
2023-07-30T05:29:34.906Z,22.05
2023-07-30T05:32:01.688Z,18.83
2023-07-30T05:34:28.336Z,17.02
2023-07-30T05:36:54.874Z,19.45
2023-07-30T05:39:21.459Z,19.75
2023-07-30T05:41:47.952Z,20.67
2023-07-30T05:44:14.564Z,23.73
2023-07-30T05:46:41.123Z,25.95
2023-07-30T05:49:07.675Z,20.67
2023-07-30T05:51:34.301Z,26.15
2023-07-30T05:54:00.949Z,20.08
2023-07-30T05:56:27.490Z,19.88
2023-07-30T05:58:54.817Z,22.50
2023-07-30T06:01:21.376Z,19.42
2023-07-30T06:03:48.113Z,22.40
2023-07-30T06:06:14.666Z,18.05
2023-07-30T06:08:41.188Z,20.35
2023-07-30T06:11:07.688Z,21.65
2023-07-30T06:13:34.286Z,18.15
2023-07-30T06:16:00.939Z,20.75
2023-07-30T06:18:27.580Z,23.23
2023-07-30T06:20:54.101Z,22.98
2023-07-30T06:23:20.661Z,23.98
2023-07-30T06:25:47.129Z,17.13
2023-07-30T06:28:13.670Z,22.45
2023-07-30T06:30:40.680Z,17.00
2023-07-30T06:33:07.402Z,19.55
2023-07-30T06:35:33.966Z,24.60
2023-07-30T06:38:00.648Z,22.00
2023-07-30T06:40:27.284Z,23.05
2023-07-30T06:42:54.062Z,20.60
2023-07-30T06:45:21.134Z,23.58
2023-07-30T06:47:47.752Z,20.83
2023-07-30T06:50:14.335Z,21.13
2023-07-30T06:52:40.848Z,22.88
2023-07-30T06:55:07.730Z,21.20
2023-07-30T06:57:34.241Z,19.05
2023-07-30T07:00:01.552Z,17.80
2023-07-30T07:02:28.205Z,17.70
2023-07-30T07:04:55.574Z,20.63
2023-07-30T07:07:22.273Z,20.50
2023-07-30T07:09:48.873Z,22.77
2023-07-30T07:12:15.454Z,19.38
2023-07-30T07:14:43.967Z,20.88
2023-07-30T07:17:10.752Z,17.77
2023-07-30T07:19:37.818Z,18.08
2023-07-30T07:22:05.613Z,19.40
2023-07-30T07:24:32.243Z,20.77
2023-07-30T07:26:59.199Z,20.15
2023-07-30T07:29:25.806Z,18.58
2023-07-30T07:31:52.268Z,15.82
2023-07-30T07:34:18.856Z,15.50
2023-07-30T07:36:45.457Z,19.35
2023-07-30T07:39:12.485Z,17.23
2023-07-30T07:41:39.385Z,17.60
2023-07-30T07:44:06.142Z,12.63
2023-07-30T07:46:32.718Z,11.10
2023-07-30T07:48:59.873Z,14.70
2023-07-30T07:51:26.833Z,14.07
2023-07-30T07:53:53.534Z,13.15
2023-07-30T07:56:20.215Z,20.02
2023-07-30T07:58:46.780Z,20.67
2023-07-30T08:01:13.353Z,14.05
2023-07-30T08:03:40.096Z,17.70
2023-07-30T08:06:07.325Z,10.02
2023-07-30T08:08:33.832Z,13.48
2023-07-30T08:11:06.148Z,18.73
2023-07-30T08:13:32.738Z,18.45
2023-07-30T08:15:59.354Z,12.00
2023-07-30T08:18:26.056Z,17.98
2023-07-30T08:20:52.605Z,16.38
2023-07-30T08:23:19.413Z,17.02
2023-07-30T08:25:46.074Z,15.05
2023-07-30T08:28:12.649Z,17.60
2023-07-30T08:30:39.218Z,15.52
2023-07-30T08:33:05.772Z,15.95
2023-07-30T08:35:32.426Z,13.75
2023-07-30T08:37:58.984Z,15.45
2023-07-30T08:40:25.777Z,12.82
2023-07-30T08:42:53.458Z,9.65
2023-07-30T08:45:21.113Z,11.60
2023-07-30T08:47:48.307Z,16.63
2023-07-30T08:50:15.161Z,17.40
2023-07-30T08:52:42.941Z,12.07
2023-07-30T08:55:11.167Z,19.05
2023-07-30T08:57:39.608Z,12.15
2023-07-30T09:00:10.373Z,10.85
2023-07-30T09:02:39.944Z,10.25
2023-07-30T09:05:07.820Z,13.32
2023-07-30T09:07:34.440Z,12.43
2023-07-30T09:10:00.936Z,10.90
2023-07-30T09:12:31.842Z,13.88
2023-07-30T09:14:58.472Z,12.98
2023-07-30T09:17:26.219Z,7.85
2023-07-30T09:19:54.104Z,10.23
2023-07-30T09:22:27.045Z,10.50
2023-07-30T09:24:54.638Z,15.30
2023-07-30T09:27:29.138Z,19.88
2023-07-30T09:30:00.668Z,10.52
2023-07-30T09:32:29.021Z,11.23
2023-07-30T09:34:56.346Z,12.40
2023-07-30T09:37:22.887Z,10.75
2023-07-30T09:39:49.831Z,10.95
2023-07-30T09:42:16.478Z,11.60
2023-07-30T09:44:43.017Z,6.60
2023-07-30T09:47:10.930Z,6.97
2023-07-30T09:49:40.351Z,13.73
2023-07-30T09:52:07.312Z,12.30
2023-07-30T09:54:34.507Z,7.95
2023-07-30T09:57:01.059Z,14.00
2023-07-30T09:59:27.949Z,11.77
2023-07-30T10:01:56.756Z,10.70
2023-07-30T10:04:24.075Z,8.57
2023-07-30T10:06:56.334Z,7.35
2023-07-30T10:09:26.733Z,5.93
2023-07-30T10:11:55.112Z,6.88
2023-07-30T10:14:24.686Z,7.40
2023-07-30T10:16:53.716Z,5.93
2023-07-30T10:19:24.992Z,7.65
2023-07-30T10:21:52.017Z,5.25
2023-07-30T10:24:18.710Z,8.50
2023-07-30T10:26:45.241Z,6.35
2023-07-30T10:29:20.089Z,6.97
2023-07-30T10:31:58.325Z,9.65
2023-07-30T10:34:43.972Z,6.93
2023-07-30T10:37:10.552Z,7.78
2023-07-30T10:39:37.250Z,6.63
2023-07-30T10:42:04.570Z,6.22
2023-07-30T10:44:35.936Z,3.53
2023-07-30T10:47:04.526Z,6.82
2023-07-30T10:49:38.001Z,4.53
2023-07-30T10:52:05.112Z,4.57
2023-07-30T10:54:35.778Z,6.20
2023-07-30T10:57:03.975Z,4.60
2023-07-30T10:59:40.637Z,3.65
2023-07-30T11:02:09.534Z,4.90
2023-07-30T11:04:36.452Z,2.45
2023-07-30T11:07:04.901Z,6.03
2023-07-30T11:09:31.672Z,5.75
2023-07-30T11:11:58.595Z,4.45
2023-07-30T11:14:29.549Z,2.03
2023-07-30T11:17:00.503Z,3.30
2023-07-30T11:19:28.386Z,2.92
2023-07-30T11:22:00.009Z,4.20
2023-07-30T11:24:36.979Z,6.43
2023-07-30T11:27:04.248Z,7.90
2023-07-30T11:29:30.972Z,5.22
2023-07-30T11:32:00.211Z,4.50
2023-07-30T11:34:28.172Z,5.35
2023-07-30T11:36:55.872Z,5.50
2023-07-30T11:39:24.091Z,6.75
2023-07-30T11:41:50.625Z,7.85
2023-07-30T11:44:38.965Z,4.53
2023-07-30T11:47:06.327Z,6.78
2023-07-30T11:49:32.883Z,4.70
2023-07-30T11:52:10.699Z,5.55
2023-07-30T11:54:37.755Z,7.22
2023-07-30T11:57:04.492Z,4.68
2023-07-30T11:59:34.467Z,3.30
2023-07-30T12:02:01.392Z,6.70
2023-07-30T12:04:32.379Z,2.13
2023-07-30T12:06:58.901Z,1.73
2023-07-30T12:09:28.957Z,4.63
2023-07-30T12:11:55.575Z,2.65
2023-07-30T12:14:31.290Z,4.45
2023-07-30T12:16:58.728Z,8.55
2023-07-30T12:19:25.296Z,2.83
2023-07-30T12:21:51.937Z,1.70
2023-07-30T12:24:18.700Z,1.30
2023-07-30T12:26:45.516Z,2.42
2023-07-30T12:29:12.117Z,2.90
2023-07-30T12:31:38.960Z,4.97
2023-07-30T12:34:05.766Z,4.65
2023-07-30T12:36:32.282Z,4.95
2023-07-30T12:38:58.904Z,2.05
2023-07-30T12:41:28.437Z,1.30
2023-07-30T12:43:58.031Z,2.13
2023-07-30T12:46:25.221Z,4.80
2023-07-30T12:48:52.621Z,4.30
2023-07-30T12:51:19.509Z,3.40
2023-07-30T12:53:46.116Z,5.05
2023-07-30T12:56:13.451Z,5.13
2023-07-30T12:58:41.157Z,3.78
2023-07-30T13:01:08.186Z,3.92
2023-07-30T13:03:35.077Z,3.00
2023-07-30T13:06:01.820Z,5.88
2023-07-30T13:08:28.343Z,4.78
2023-07-30T13:10:54.871Z,3.85
2023-07-30T13:13:21.419Z,3.28
2023-07-30T13:15:48.047Z,2.85
2023-07-30T13:18:14.581Z,2.30
2023-07-30T13:20:41.134Z,1.25
2023-07-30T13:23:07.999Z,1.90
2023-07-30T13:25:34.537Z,4.50
2023-07-30T13:28:01.147Z,8.77
2023-07-30T13:30:27.851Z,1.77
2023-07-30T13:32:54.467Z,4.78
2023-07-30T13:35:20.925Z,3.97
2023-07-30T13:37:47.465Z,1.55
2023-07-30T13:40:13.969Z,4.05
2023-07-30T13:42:40.546Z,2.47
2023-07-30T13:45:07.513Z,1.77
2023-07-30T13:47:34.120Z,3.92
2023-07-30T13:50:00.703Z,2.33
2023-07-30T13:52:27.291Z,3.42
2023-07-30T13:54:53.794Z,4.28
2023-07-30T13:57:27.014Z,3.25
2023-07-30T13:59:53.954Z,2.60
2023-07-30T14:02:20.708Z,5.47
2023-07-30T14:04:47.244Z,2.60
2023-07-30T14:07:13.785Z,4.50
2023-07-30T14:09:40.667Z,4.32
2023-07-30T14:12:07.443Z,3.40
2023-07-30T14:14:33.957Z,4.22
2023-07-30T14:17:01.603Z,4.32
2023-07-30T14:19:28.195Z,5.75
2023-07-30T14:21:54.678Z,7.03
2023-07-30T14:24:21.183Z,4.97
2023-07-30T14:26:47.705Z,4.28
2023-07-30T14:29:14.242Z,5.10
2023-07-30T14:31:41.439Z,4.88
2023-07-30T14:34:08.468Z,4.28
2023-07-30T14:36:35.039Z,11.48
2023-07-30T14:39:01.621Z,6.55
2023-07-30T14:41:28.142Z,2.38
2023-07-30T14:43:54.697Z,3.50
2023-07-30T14:46:21.381Z,6.68
2023-07-30T14:48:47.980Z,7.93
2023-07-30T14:51:14.746Z,4.35
2023-07-30T14:53:41.272Z,2.88
2023-07-30T14:56:07.855Z,4.72
2023-07-30T14:58:34.912Z,7.68
2023-07-30T15:01:01.775Z,7.15
2023-07-30T15:03:28.592Z,8.85
2023-07-30T15:05:55.355Z,6.85
2023-07-30T15:08:21.929Z,9.65
2023-07-30T15:10:48.509Z,5.18
2023-07-30T15:13:15.102Z,6.85
2023-07-30T15:15:41.788Z,5.10
2023-07-30T15:18:09.583Z,4.60
2023-07-30T15:20:36.481Z,5.60
2023-07-30T15:23:03.381Z,6.85
2023-07-30T15:25:29.950Z,7.07
2023-07-30T15:27:58.301Z,5.30
2023-07-30T15:30:25.746Z,7.68
2023-07-30T15:32:52.403Z,8.82
2023-07-30T15:35:19.331Z,8.20
2023-07-30T15:37:46.737Z,7.68
2023-07-30T15:40:13.955Z,5.63
2023-07-30T15:42:40.669Z,5.70
2023-07-30T15:45:07.593Z,8.90
2023-07-30T15:47:34.146Z,10.05
2023-07-30T15:50:00.921Z,6.25
2023-07-30T15:52:27.505Z,4.88
2023-07-30T15:54:54.698Z,8.85
2023-07-30T15:57:21.273Z,6.35
2023-07-30T15:59:48.951Z,9.48
2023-07-30T16:02:16.064Z,6.53
2023-07-30T16:04:42.702Z,4.63
2023-07-30T16:07:10.869Z,11.02
2023-07-30T16:09:37.470Z,7.18
2023-07-30T16:12:05.006Z,6.25
2023-07-30T16:14:31.887Z,14.73
2023-07-30T16:16:58.683Z,7.10
2023-07-30T16:19:25.254Z,8.30
2023-07-30T16:21:52.798Z,6.55
2023-07-30T16:24:19.738Z,6.07
2023-07-30T16:26:46.239Z,11.30
2023-07-30T16:29:12.797Z,9.63
2023-07-30T16:31:39.406Z,8.45
2023-07-30T16:34:05.971Z,4.28
2023-07-30T16:36:32.546Z,17.35
2023-07-30T16:38:59.122Z,5.90
2023-07-30T16:41:25.651Z,8.70
2023-07-30T16:43:52.199Z,8.15
2023-07-30T16:46:18.775Z,9.60
2023-07-30T16:48:45.352Z,4.65
2023-07-30T16:51:11.891Z,9.00
2023-07-30T16:53:38.900Z,16.52
2023-07-30T16:56:16.445Z,9.43
2023-07-30T16:58:43.188Z,9.55
2023-07-30T17:01:10.538Z,9.68
2023-07-30T17:03:39.497Z,6.05
2023-07-30T17:06:07.254Z,11.60
2023-07-30T17:08:34.326Z,14.75
2023-07-30T17:11:08.474Z,10.23
2023-07-30T17:13:36.483Z,9.70
2023-07-30T17:16:11.143Z,8.63
2023-07-30T17:18:38.918Z,9.45
2023-07-30T17:21:05.730Z,4.97
2023-07-30T17:23:32.550Z,7.15
2023-07-30T17:26:00.429Z,7.10
2023-07-30T17:28:30.179Z,7.55
2023-07-30T17:30:57.275Z,6.25
2023-07-30T17:33:24.011Z,5.65
2023-07-30T17:35:51.922Z,4.85
2023-07-30T17:38:18.582Z,8.95
2023-07-30T17:40:52.361Z,4.30
2023-07-30T17:43:18.995Z,4.72
2023-07-30T17:45:45.748Z,4.22
2023-07-30T17:48:12.351Z,5.03
2023-07-30T17:50:40.312Z,2.35
2023-07-30T17:53:07.515Z,4.53
2023-07-30T17:55:34.434Z,5.50
2023-07-30T17:58:01.065Z,2.55
2023-07-30T18:00:29.099Z,5.03
2023-07-30T18:02:55.697Z,2.60
2023-07-30T18:05:28.034Z,4.35
2023-07-30T18:08:00.478Z,1.58
2023-07-30T18:10:27.049Z,2.65
2023-07-30T18:12:53.705Z,2.03
2023-07-30T18:15:20.356Z,3.75
2023-07-30T18:17:46.882Z,4.25
2023-07-30T18:20:13.440Z,1.33
2023-07-30T18:22:39.958Z,2.88
2023-07-30T18:25:06.848Z,2.45
2023-07-30T18:27:33.442Z,3.22
2023-07-30T18:30:00.016Z,1.90
2023-07-30T18:32:26.663Z,2.63
2023-07-30T18:34:53.229Z,2.08
2023-07-30T18:37:19.785Z,3.20
2023-07-30T18:39:46.309Z,3.00
2023-07-30T18:42:12.771Z,3.40
2023-07-30T18:44:39.316Z,2.45
2023-07-30T18:47:06.090Z,3.10
2023-07-30T18:49:32.811Z,4.57
2023-07-30T18:51:59.437Z,2.30
2023-07-30T18:54:25.961Z,2.03
2023-07-30T18:56:53.307Z,2.38
2023-07-30T18:59:19.792Z,4.55
2023-07-30T19:01:46.309Z,2.50
2023-07-30T19:04:12.816Z,3.10
2023-07-30T19:06:39.657Z,3.17
2023-07-30T19:09:06.513Z,3.40
2023-07-30T19:11:33.067Z,7.28
2023-07-30T19:13:59.700Z,8.23
2023-07-30T19:16:26.274Z,3.25
2023-07-30T19:18:52.875Z,3.53
2023-07-30T19:21:19.568Z,5.13
2023-07-30T19:23:46.219Z,3.60
2023-07-30T19:26:12.780Z,2.78
2023-07-30T19:28:39.395Z,5.78
2023-07-30T19:31:09.068Z,2.72
2023-07-30T19:33:41.973Z,5.78
2023-07-30T19:36:09.589Z,5.75
2023-07-30T19:38:36.121Z,3.60
2023-07-30T19:41:07.086Z,4.05
2023-07-30T19:43:38.701Z,6.18
2023-07-30T19:46:06.215Z,4.85
2023-07-30T19:48:33.372Z,4.03
2023-07-30T19:51:00.438Z,4.65
2023-07-30T19:53:27.506Z,3.65
2023-07-30T19:55:54.246Z,5.75
2023-07-30T19:58:32.066Z,8.25
2023-07-30T20:01:00.878Z,3.35
2023-07-30T20:03:28.900Z,2.90
2023-07-30T20:05:59.784Z,4.22
2023-07-30T20:08:26.618Z,5.18
2023-07-30T20:10:54.335Z,3.20
2023-07-30T20:13:20.848Z,4.82
2023-07-30T20:15:47.828Z,4.80
2023-07-30T20:18:14.337Z,3.25
2023-07-30T20:20:41.964Z,2.58
2023-07-30T20:23:08.836Z,2.25
2023-07-30T20:25:36.540Z,3.33
2023-07-30T20:28:05.870Z,2.35
2023-07-30T20:30:33.760Z,4.07
2023-07-30T20:33:01.235Z,2.47
2023-07-30T20:35:28.156Z,2.70
2023-07-30T20:37:58.555Z,3.88
2023-07-30T20:40:26.014Z,2.63
2023-07-30T20:42:53.872Z,6.05
2023-07-30T20:45:21.402Z,2.13
2023-07-30T20:47:52.718Z,2.35
2023-07-30T20:50:20.465Z,4.75
2023-07-30T20:52:48.107Z,1.88
2023-07-30T20:55:16.699Z,2.03
2023-07-30T20:57:44.013Z,2.10
2023-07-30T21:00:11.360Z,1.80
2023-07-30T21:02:38.919Z,2.22
2023-07-30T21:05:06.013Z,2.70
2023-07-30T21:07:32.557Z,2.03
2023-07-30T21:09:59.086Z,2.40
2023-07-30T21:12:25.630Z,2.28
2023-07-30T21:14:52.237Z,1.70
2023-07-30T21:17:20.039Z,2.03
2023-07-30T21:19:47.277Z,1.92
2023-07-30T21:22:13.857Z,2.00
2023-07-30T21:24:40.379Z,1.77
2023-07-30T21:27:07.349Z,3.97
2023-07-30T21:29:33.982Z,2.00
2023-07-30T21:32:00.816Z,2.42
2023-07-30T21:34:27.642Z,1.70
2023-07-30T21:36:54.167Z,1.50
2023-07-30T21:39:20.711Z,2.20
2023-07-30T21:41:47.330Z,1.90
2023-07-30T21:44:13.919Z,1.42
2023-07-30T21:46:40.892Z,1.60
2023-07-30T21:49:07.911Z,1.75
2023-07-30T21:51:34.465Z,4.13
2023-07-30T21:54:01.098Z,1.50
2023-07-30T21:56:27.722Z,1.85
2023-07-30T21:58:54.306Z,1.50
2023-07-30T22:01:20.873Z,2.05
2023-07-30T22:03:47.413Z,5.45
2023-07-30T22:06:13.921Z,1.60
2023-07-30T22:08:40.489Z,3.40
2023-07-30T22:11:07.012Z,1.73
2023-07-30T22:13:33.571Z,2.08
2023-07-30T22:16:00.107Z,1.70
2023-07-30T22:18:26.638Z,1.73
2023-07-30T22:20:53.143Z,1.50
2023-07-30T22:23:19.727Z,8.80
2023-07-30T22:25:46.344Z,2.00
2023-07-30T22:28:12.917Z,1.95
2023-07-30T22:30:41.338Z,5.97
2023-07-30T22:33:08.288Z,1.88
2023-07-30T22:35:34.959Z,3.40
2023-07-30T22:38:01.590Z,2.80
2023-07-30T22:40:28.977Z,3.80
2023-07-30T22:42:55.487Z,4.03
2023-07-30T22:45:22.073Z,1.63
2023-07-30T22:47:49.160Z,2.72
2023-07-30T22:50:15.808Z,1.45
2023-07-30T22:52:42.413Z,5.15
2023-07-30T22:55:09.170Z,2.05
2023-07-30T22:57:36.253Z,1.33
2023-07-30T23:00:03.728Z,1.40
2023-07-30T23:02:30.386Z,1.25
2023-07-30T23:04:56.990Z,1.10
2023-07-30T23:07:23.582Z,4.18
2023-07-30T23:09:50.171Z,0.93
2023-07-30T23:12:16.699Z,1.05
2023-07-30T23:14:43.278Z,1.33
2023-07-30T23:17:09.775Z,1.13
2023-07-30T23:19:36.295Z,0.90
2023-07-30T23:22:04.864Z,3.38
2023-07-30T23:24:33.596Z,0.77
2023-07-30T23:27:00.186Z,0.98
2023-07-30T23:29:26.761Z,0.80
2023-07-30T23:31:53.962Z,1.13
2023-07-30T23:34:20.684Z,1.08
2023-07-30T23:36:47.247Z,0.55
2023-07-30T23:39:13.847Z,0.90
2023-07-30T23:41:40.392Z,0.52
2023-07-30T23:44:06.971Z,0.90
2023-07-30T23:46:33.587Z,0.68
2023-07-30T23:49:00.106Z,0.85
2023-07-30T23:51:26.815Z,1.42
2023-07-30T23:53:54.059Z,3.20
2023-07-30T23:56:20.873Z,0.85
2023-07-30T23:58:47.641Z,1.10
